sensor_id;sensor_type;location;lat;lon;timestamp;temperature;humidity
29663;DHT22;16578;53.266;7.920;2022-12-10T00:01:44;2.30;78.90
29663;DHT22;16578;53.266;7.920;2022-12-10T00:04:11;2.20;78.90
29663;DHT22;16578;53.266;7.920;2022-12-10T00:06:38;2.30;79.00
29663;DHT22;16578;53.266;7.920;2022-12-10T00:09:06;2.20;79.10
29663;DHT22;16578;53.266;7.920;2022-12-10T00:11:32;2.20;79.20
29663;DHT22;16578;53.266;7.920;2022-12-10T00:13:58;2.20;79.20
29663;DHT22;16578;53.266;7.920;2022-12-10T00:16:26;2.20;79.20
29663;DHT22;16578;53.266;7.920;2022-12-10T00:18:52;2.20;79.10
29663;DHT22;16578;53.266;7.920;2022-12-10T00:21:24;2.20;79.20
29663;DHT22;16578;53.266;7.920;2022-12-10T00:23:50;2.20;79.10
29663;DHT22;16578;53.266;7.920;2022-12-10T00:26:21;2.20;79.00
29663;DHT22;16578;53.266;7.920;2022-12-10T00:28:47;2.20;79.00
29663;DHT22;16578;53.266;7.920;2022-12-10T00:31:19;2.20;79.00
29663;DHT22;16578;53.266;7.920;2022-12-10T00:33:46;2.10;78.90
29663;DHT22;16578;53.266;7.920;2022-12-10T00:36:14;2.10;79.00
29663;DHT22;16578;53.266;7.920;2022-12-10T00:38:40;2.10;79.00
29663;DHT22;16578;53.266;7.920;2022-12-10T00:41:06;2.00;79.00
29663;DHT22;16578;53.266;7.920;2022-12-10T00:43:32;2.00;79.10
29663;DHT22;16578;53.266;7.920;2022-12-10T00:45:58;2.10;79.10
29663;DHT22;16578;53.266;7.920;2022-12-10T00:48:24;2.00;79.10
29663;DHT22;16578;53.266;7.920;2022-12-10T00:51:20;2.10;79.10
29663;DHT22;16578;53.266;7.920;2022-12-10T00:53:47;2.00;79.00
29663;DHT22;16578;53.266;7.920;2022-12-10T00:56:16;2.00;79.10
29663;DHT22;16578;53.266;7.920;2022-12-10T00:58:41;2.00;79.10
29663;DHT22;16578;53.266;7.920;2022-12-10T01:01:09;2.00;79.00
29663;DHT22;16578;53.266;7.920;2022-12-10T01:03:35;2.00;79.00
29663;DHT22;16578;53.266;7.920;2022-12-10T01:06:16;2.00;79.00
29663;DHT22;16578;53.266;7.920;2022-12-10T01:08:43;2.00;78.80
29663;DHT22;16578;53.266;7.920;2022-12-10T01:11:09;2.00;78.80
29663;DHT22;16578;53.266;7.920;2022-12-10T01:13:35;1.90;78.90
29663;DHT22;16578;53.266;7.920;2022-12-10T01:16:05;1.90;79.00
29663;DHT22;16578;53.266;7.920;2022-12-10T01:18:31;1.90;79.00
29663;DHT22;16578;53.266;7.920;2022-12-10T01:21:04;1.90;79.10
29663;DHT22;16578;53.266;7.920;2022-12-10T01:23:34;1.90;80.10
29663;DHT22;16578;53.266;7.920;2022-12-10T01:26:02;1.90;79.30
29663;DHT22;16578;53.266;7.920;2022-12-10T01:28:33;1.90;79.40
29663;DHT22;16578;53.266;7.920;2022-12-10T01:31:13;1.90;79.40
29663;DHT22;16578;53.266;7.920;2022-12-10T01:33:39;1.90;79.40
29663;DHT22;16578;53.266;7.920;2022-12-10T01:36:14;1.90;79.40
29663;DHT22;16578;53.266;7.920;2022-12-10T01:38:40;1.90;79.40
29663;DHT22;16578;53.266;7.920;2022-12-10T01:41:07;1.90;79.50
29663;DHT22;16578;53.266;7.920;2022-12-10T01:43:52;1.90;79.50
29663;DHT22;16578;53.266;7.920;2022-12-10T01:46:19;1.90;79.40
29663;DHT22;16578;53.266;7.920;2022-12-10T01:48:45;1.90;79.40
29663;DHT22;16578;53.266;7.920;2022-12-10T01:51:12;1.80;79.30
29663;DHT22;16578;53.266;7.920;2022-12-10T01:53:38;1.80;79.30
29663;DHT22;16578;53.266;7.920;2022-12-10T01:56:04;1.80;79.40
29663;DHT22;16578;53.266;7.920;2022-12-10T01:58:30;1.80;79.40
29663;DHT22;16578;53.266;7.920;2022-12-10T02:04:03;1.80;79.60
29663;DHT22;16578;53.266;7.920;2022-12-10T02:12:05;1.80;79.60
29663;DHT22;16578;53.266;7.920;2022-12-10T02:17:38;1.80;79.70
29663;DHT22;16578;53.266;7.920;2022-12-10T02:20:14;1.80;79.80
29663;DHT22;16578;53.266;7.920;2022-12-10T02:25:17;1.80;79.90
29663;DHT22;16578;53.266;7.920;2022-12-10T02:30:34;1.80;79.90
29663;DHT22;16578;53.266;7.920;2022-12-10T02:33:03;1.80;80.00
29663;DHT22;16578;53.266;7.920;2022-12-10T02:35:32;1.80;80.00
29663;DHT22;16578;53.266;7.920;2022-12-10T02:38:10;1.80;80.00
29663;DHT22;16578;53.266;7.920;2022-12-10T02:40:38;1.90;80.10
29663;DHT22;16578;53.266;7.920;2022-12-10T02:43:06;1.90;80.20
29663;DHT22;16578;53.266;7.920;2022-12-10T02:45:33;1.90;80.20
29663;DHT22;16578;53.266;7.920;2022-12-10T02:48:01;1.90;80.10
29663;DHT22;16578;53.266;7.920;2022-12-10T02:50:28;1.90;80.00
29663;DHT22;16578;53.266;7.920;2022-12-10T02:52:54;2.00;79.90
29663;DHT22;16578;53.266;7.920;2022-12-10T02:55:19;1.90;79.80
29663;DHT22;16578;53.266;7.920;2022-12-10T03:00:32;1.90;79.70
29663;DHT22;16578;53.266;7.920;2022-12-10T03:03:07;1.90;79.70
29663;DHT22;16578;53.266;7.920;2022-12-10T03:05:47;1.90;79.70
29663;DHT22;16578;53.266;7.920;2022-12-10T03:08:27;1.90;79.70
29663;DHT22;16578;53.266;7.920;2022-12-10T03:13:28;1.90;79.80
29663;DHT22;16578;53.266;7.920;2022-12-10T03:15:55;1.90;79.80
29663;DHT22;16578;53.266;7.920;2022-12-10T03:18:23;1.90;79.90
29663;DHT22;16578;53.266;7.920;2022-12-10T03:20:51;1.90;80.00
29663;DHT22;16578;53.266;7.920;2022-12-10T03:23:18;1.90;80.10
29663;DHT22;16578;53.266;7.920;2022-12-10T03:25:46;1.90;80.10
29663;DHT22;16578;53.266;7.920;2022-12-10T03:28:14;1.90;80.10
29663;DHT22;16578;53.266;7.920;2022-12-10T03:30:41;1.90;80.10
29663;DHT22;16578;53.266;7.920;2022-12-10T03:33:08;1.90;80.10
29663;DHT22;16578;53.266;7.920;2022-12-10T03:35:34;1.90;80.10
29663;DHT22;16578;53.266;7.920;2022-12-10T03:38:01;1.90;81.10
29663;DHT22;16578;53.266;7.920;2022-12-10T03:40:27;1.90;80.20
29663;DHT22;16578;53.266;7.920;2022-12-10T03:42:52;1.90;80.20
29663;DHT22;16578;53.266;7.920;2022-12-10T03:45:18;1.90;80.20
29663;DHT22;16578;53.266;7.920;2022-12-10T03:47:44;2.00;80.30
29663;DHT22;16578;53.266;7.920;2022-12-10T03:50:10;2.00;80.30
29663;DHT22;16578;53.266;7.920;2022-12-10T03:52:36;2.00;80.30
29663;DHT22;16578;53.266;7.920;2022-12-10T03:55:01;2.00;80.40
29663;DHT22;16578;53.266;7.920;2022-12-10T03:57:27;2.00;80.30
29663;DHT22;16578;53.266;7.920;2022-12-10T03:59:52;2.10;80.30
29663;DHT22;16578;53.266;7.920;2022-12-10T04:02:18;2.10;80.30
29663;DHT22;16578;53.266;7.920;2022-12-10T04:04:44;2.00;80.20
29663;DHT22;16578;53.266;7.920;2022-12-10T04:07:09;2.00;80.10
29663;DHT22;16578;53.266;7.920;2022-12-10T04:09:35;2.00;80.10
29663;DHT22;16578;53.266;7.920;2022-12-10T04:12:01;2.00;80.10
29663;DHT22;16578;53.266;7.920;2022-12-10T04:14:27;2.10;80.00
29663;DHT22;16578;53.266;7.920;2022-12-10T04:17:11;2.00;79.90
29663;DHT22;16578;53.266;7.920;2022-12-10T04:19:37;2.00;79.90
29663;DHT22;16578;53.266;7.920;2022-12-10T04:22:03;2.00;79.90
29663;DHT22;16578;53.266;7.920;2022-12-10T04:24:47;2.00;79.80
29663;DHT22;16578;53.266;7.920;2022-12-10T04:27:51;2.00;79.90
29663;DHT22;16578;53.266;7.920;2022-12-10T04:30:17;1.90;79.80
29663;DHT22;16578;53.266;7.920;2022-12-10T04:32:42;1.90;79.80
29663;DHT22;16578;53.266;7.920;2022-12-10T04:35:08;2.00;79.90
29663;DHT22;16578;53.266;7.920;2022-12-10T04:37:34;1.90;79.80
29663;DHT22;16578;53.266;7.920;2022-12-10T04:40:00;1.90;79.90
29663;DHT22;16578;53.266;7.920;2022-12-10T04:42:25;1.90;79.80
29663;DHT22;16578;53.266;7.920;2022-12-10T04:44:51;1.90;79.70
29663;DHT22;16578;53.266;7.920;2022-12-10T04:47:17;1.90;79.80
29663;DHT22;16578;53.266;7.920;2022-12-10T04:49:42;1.90;79.80
29663;DHT22;16578;53.266;7.920;2022-12-10T04:52:11;1.90;79.90
29663;DHT22;16578;53.266;7.920;2022-12-10T04:54:38;1.90;79.90
29663;DHT22;16578;53.266;7.920;2022-12-10T04:57:03;1.90;80.10
29663;DHT22;16578;53.266;7.920;2022-12-10T04:59:29;1.90;80.10
29663;DHT22;16578;53.266;7.920;2022-12-10T05:01:55;1.90;80.10
29663;DHT22;16578;53.266;7.920;2022-12-10T05:04:20;1.90;80.10
29663;DHT22;16578;53.266;7.920;2022-12-10T05:06:48;1.90;80.10
29663;DHT22;16578;53.266;7.920;2022-12-10T05:09:14;1.90;80.10
29663;DHT22;16578;53.266;7.920;2022-12-10T05:11:40;1.90;80.10
29663;DHT22;16578;53.266;7.920;2022-12-10T05:14:06;1.90;80.10
29663;DHT22;16578;53.266;7.920;2022-12-10T05:16:33;1.90;80.10
29663;DHT22;16578;53.266;7.920;2022-12-10T05:18:59;1.90;80.00
29663;DHT22;16578;53.266;7.920;2022-12-10T05:21:27;1.90;80.00
29663;DHT22;16578;53.266;7.920;2022-12-10T05:24:12;1.90;80.00
29663;DHT22;16578;53.266;7.920;2022-12-10T05:26:38;1.90;80.00
29663;DHT22;16578;53.266;7.920;2022-12-10T05:29:05;1.90;80.00
29663;DHT22;16578;53.266;7.920;2022-12-10T05:31:30;1.90;79.90
29663;DHT22;16578;53.266;7.920;2022-12-10T05:33:57;1.90;79.90
29663;DHT22;16578;53.266;7.920;2022-12-10T05:36:26;1.90;79.90
29663;DHT22;16578;53.266;7.920;2022-12-10T05:38:54;1.90;79.90
29663;DHT22;16578;53.266;7.920;2022-12-10T05:41:22;1.90;79.90
29663;DHT22;16578;53.266;7.920;2022-12-10T05:43:49;1.90;79.80
29663;DHT22;16578;53.266;7.920;2022-12-10T05:46:18;1.90;79.70
29663;DHT22;16578;53.266;7.920;2022-12-10T05:48:43;1.90;79.60
29663;DHT22;16578;53.266;7.920;2022-12-10T05:51:12;1.90;79.50
29663;DHT22;16578;53.266;7.920;2022-12-10T05:53:38;1.90;79.50
29663;DHT22;16578;53.266;7.920;2022-12-10T05:56:12;1.80;79.40
29663;DHT22;16578;53.266;7.920;2022-12-10T05:58:39;1.80;80.20
29663;DHT22;16578;53.266;7.920;2022-12-10T06:01:11;1.80;79.60
29663;DHT22;16578;53.266;7.920;2022-12-10T06:03:37;1.80;79.60
29663;DHT22;16578;53.266;7.920;2022-12-10T06:06:03;1.80;79.60
29663;DHT22;16578;53.266;7.920;2022-12-10T06:08:29;1.80;79.50
29663;DHT22;16578;53.266;7.920;2022-12-10T06:10:54;1.70;79.40
29663;DHT22;16578;53.266;7.920;2022-12-10T06:13:22;1.70;79.30
29663;DHT22;16578;53.266;7.920;2022-12-10T06:15:48;1.70;79.30
29663;DHT22;16578;53.266;7.920;2022-12-10T06:18:13;1.70;79.30
29663;DHT22;16578;53.266;7.920;2022-12-10T06:20:39;1.60;79.30
29663;DHT22;16578;53.266;7.920;2022-12-10T06:23:05;1.60;79.40
29663;DHT22;16578;53.266;7.920;2022-12-10T06:25:31;1.60;79.50
29663;DHT22;16578;53.266;7.920;2022-12-10T06:27:57;1.60;79.50
29663;DHT22;16578;53.266;7.920;2022-12-10T06:30:22;1.60;79.60
29663;DHT22;16578;53.266;7.920;2022-12-10T06:32:48;1.70;79.80
29663;DHT22;16578;53.266;7.920;2022-12-10T06:35:13;1.70;79.90
29663;DHT22;16578;53.266;7.920;2022-12-10T06:37:39;1.70;80.20
29663;DHT22;16578;53.266;7.920;2022-12-10T06:40:05;1.70;80.30
29663;DHT22;16578;53.266;7.920;2022-12-10T06:42:31;1.80;80.50
29663;DHT22;16578;53.266;7.920;2022-12-10T06:44:56;1.80;80.50
29663;DHT22;16578;53.266;7.920;2022-12-10T06:47:22;1.90;80.50
29663;DHT22;16578;53.266;7.920;2022-12-10T06:49:48;1.90;80.60
29663;DHT22;16578;53.266;7.920;2022-12-10T06:52:14;2.00;80.60
29663;DHT22;16578;53.266;7.920;2022-12-10T06:54:39;2.00;80.60
29663;DHT22;16578;53.266;7.920;2022-12-10T06:57:05;2.00;80.60
29663;DHT22;16578;53.266;7.920;2022-12-10T06:59:31;2.10;80.60
29663;DHT22;16578;53.266;7.920;2022-12-10T07:01:56;2.10;80.50
29663;DHT22;16578;53.266;7.920;2022-12-10T07:04:22;2.20;80.60
29663;DHT22;16578;53.266;7.920;2022-12-10T07:06:47;2.30;80.60
29663;DHT22;16578;53.266;7.920;2022-12-10T07:09:13;2.30;80.60
29663;DHT22;16578;53.266;7.920;2022-12-10T07:11:39;2.30;80.50
29663;DHT22;16578;53.266;7.920;2022-12-10T07:14:05;2.40;80.60
29663;DHT22;16578;53.266;7.920;2022-12-10T07:16:31;2.40;80.40
29663;DHT22;16578;53.266;7.920;2022-12-10T07:18:59;2.40;80.40
29663;DHT22;16578;53.266;7.920;2022-12-10T07:21:28;2.40;80.20
29663;DHT22;16578;53.266;7.920;2022-12-10T07:23:56;2.50;80.20
29663;DHT22;16578;53.266;7.920;2022-12-10T07:26:24;2.50;80.10
29663;DHT22;16578;53.266;7.920;2022-12-10T07:28:50;2.50;80.00
29663;DHT22;16578;53.266;7.920;2022-12-10T07:31:16;2.50;80.00
29663;DHT22;16578;53.266;7.920;2022-12-10T07:33:42;2.50;79.90
29663;DHT22;16578;53.266;7.920;2022-12-10T07:36:10;2.50;79.90
29663;DHT22;16578;53.266;7.920;2022-12-10T07:38:36;2.50;79.80
29663;DHT22;16578;53.266;7.920;2022-12-10T07:41:06;2.50;79.80
29663;DHT22;16578;53.266;7.920;2022-12-10T07:43:35;2.50;79.80
29663;DHT22;16578;53.266;7.920;2022-12-10T07:46:27;2.50;79.90
29663;DHT22;16578;53.266;7.920;2022-12-10T07:48:54;2.50;79.70
29663;DHT22;16578;53.266;7.920;2022-12-10T07:51:20;2.50;79.90
29663;DHT22;16578;53.266;7.920;2022-12-10T07:53:47;2.50;79.90
29663;DHT22;16578;53.266;7.920;2022-12-10T07:56:13;2.60;80.10
29663;DHT22;16578;53.266;7.920;2022-12-10T07:58:42;2.50;80.20
29663;DHT22;16578;53.266;7.920;2022-12-10T08:01:13;2.60;80.30
29663;DHT22;16578;53.266;7.920;2022-12-10T08:03:39;2.60;80.30
29663;DHT22;16578;53.266;7.920;2022-12-10T08:06:07;2.70;80.40
29663;DHT22;16578;53.266;7.920;2022-12-10T08:08:33;2.70;80.30
29663;DHT22;16578;53.266;7.920;2022-12-10T08:11:00;2.70;80.30
29663;DHT22;16578;53.266;7.920;2022-12-10T08:13:25;2.70;80.20
29663;DHT22;16578;53.266;7.920;2022-12-10T08:15:51;2.80;80.20
29663;DHT22;16578;53.266;7.920;2022-12-10T08:18:17;2.80;80.10
29663;DHT22;16578;53.266;7.920;2022-12-10T08:20:42;2.80;80.10
29663;DHT22;16578;53.266;7.920;2022-12-10T08:23:08;2.80;80.10
29663;DHT22;16578;53.266;7.920;2022-12-10T08:25:33;2.80;80.10
29663;DHT22;16578;53.266;7.920;2022-12-10T08:28:00;2.80;80.10
29663;DHT22;16578;53.266;7.920;2022-12-10T08:30:28;2.90;80.10
29663;DHT22;16578;53.266;7.920;2022-12-10T08:32:54;2.90;79.90
29663;DHT22;16578;53.266;7.920;2022-12-10T08:35:19;2.90;79.90
29663;DHT22;16578;53.266;7.920;2022-12-10T08:37:45;2.90;79.90
29663;DHT22;16578;53.266;7.920;2022-12-10T08:40:10;2.90;79.90
29663;DHT22;16578;53.266;7.920;2022-12-10T08:42:36;2.90;79.70
29663;DHT22;16578;53.266;7.920;2022-12-10T08:45:02;2.90;79.70
29663;DHT22;16578;53.266;7.920;2022-12-10T08:47:27;2.90;79.80
29663;DHT22;16578;53.266;7.920;2022-12-10T08:49:53;2.90;79.70
29663;DHT22;16578;53.266;7.920;2022-12-10T08:52:18;2.90;79.70
29663;DHT22;16578;53.266;7.920;2022-12-10T08:54:44;2.90;79.70
29663;DHT22;16578;53.266;7.920;2022-12-10T08:57:09;2.90;79.70
29663;DHT22;16578;53.266;7.920;2022-12-10T08:59:35;2.90;79.70
29663;DHT22;16578;53.266;7.920;2022-12-10T09:02:00;2.90;79.70
29663;DHT22;16578;53.266;7.920;2022-12-10T09:04:26;2.90;79.70
29663;DHT22;16578;53.266;7.920;2022-12-10T09:06:51;2.90;79.70
29663;DHT22;16578;53.266;7.920;2022-12-10T09:09:17;2.90;79.80
29663;DHT22;16578;53.266;7.920;2022-12-10T09:11:43;2.90;79.90
29663;DHT22;16578;53.266;7.920;2022-12-10T09:14:11;2.90;79.80
29663;DHT22;16578;53.266;7.920;2022-12-10T09:16:37;2.90;79.80
29663;DHT22;16578;53.266;7.920;2022-12-10T09:19:04;2.90;79.90
29663;DHT22;16578;53.266;7.920;2022-12-10T09:21:30;2.90;79.90
29663;DHT22;16578;53.266;7.920;2022-12-10T09:23:56;2.90;80.00
29663;DHT22;16578;53.266;7.920;2022-12-10T09:26:22;2.90;80.10
29663;DHT22;16578;53.266;7.920;2022-12-10T09:28:48;2.90;80.10
29663;DHT22;16578;53.266;7.920;2022-12-10T09:31:16;3.00;80.20
29663;DHT22;16578;53.266;7.920;2022-12-10T09:33:42;3.00;80.20
29663;DHT22;16578;53.266;7.920;2022-12-10T09:36:10;3.00;80.20
29663;DHT22;16578;53.266;7.920;2022-12-10T09:38:38;3.00;80.20
29663;DHT22;16578;53.266;7.920;2022-12-10T09:51:31;3.10;80.00
29663;DHT22;16578;53.266;7.920;2022-12-10T09:53:58;3.20;80.10
29663;DHT22;16578;53.266;7.920;2022-12-10T09:56:34;3.20;80.10
29663;DHT22;16578;53.266;7.920;2022-12-10T09:59:15;3.20;80.00
29663;DHT22;16578;53.266;7.920;2022-12-10T10:01:43;3.20;80.00
29663;DHT22;16578;53.266;7.920;2022-12-10T10:04:09;3.20;80.10
29663;DHT22;16578;53.266;7.920;2022-12-10T10:06:35;3.20;80.00
29663;DHT22;16578;53.266;7.920;2022-12-10T10:09:02;3.20;80.10
29663;DHT22;16578;53.266;7.920;2022-12-10T10:11:31;3.30;80.10
29663;DHT22;16578;53.266;7.920;2022-12-10T10:16:59;3.30;80.00
29663;DHT22;16578;53.266;7.920;2022-12-10T10:19:30;3.30;80.20
29663;DHT22;16578;53.266;7.920;2022-12-10T10:21:58;3.20;80.20
29663;DHT22;16578;53.266;7.920;2022-12-10T10:24:35;3.40;80.50
29663;DHT22;16578;53.266;7.920;2022-12-10T10:29:40;3.50;80.50
29663;DHT22;16578;53.266;7.920;2022-12-10T10:32:21;3.50;80.50
29663;DHT22;16578;53.266;7.920;2022-12-10T10:34:53;3.50;80.50
29663;DHT22;16578;53.266;7.920;2022-12-10T10:37:31;3.60;80.50
29663;DHT22;16578;53.266;7.920;2022-12-10T10:40:04;3.70;80.60
29663;DHT22;16578;53.266;7.920;2022-12-10T10:42:39;3.80;80.60
29663;DHT22;16578;53.266;7.920;2022-12-10T10:45:30;3.80;80.50
29663;DHT22;16578;53.266;7.920;2022-12-10T10:48:14;3.90;80.20
29663;DHT22;16578;53.266;7.920;2022-12-10T10:51:07;3.90;80.20
29663;DHT22;16578;53.266;7.920;2022-12-10T10:56:12;4.00;80.00
29663;DHT22;16578;53.266;7.920;2022-12-10T10:58:58;4.10;80.00
29663;DHT22;16578;53.266;7.920;2022-12-10T11:01:27;4.10;79.80
29663;DHT22;16578;53.266;7.920;2022-12-10T11:04:08;4.10;79.80
29663;DHT22;16578;53.266;7.920;2022-12-10T11:06:33;4.20;79.80
29663;DHT22;16578;53.266;7.920;2022-12-10T11:08:59;4.20;79.70
29663;DHT22;16578;53.266;7.920;2022-12-10T11:11:32;4.30;79.60
29663;DHT22;16578;53.266;7.920;2022-12-10T11:14:23;4.30;79.50
29663;DHT22;16578;53.266;7.920;2022-12-10T11:16:49;4.30;79.20
29663;DHT22;16578;53.266;7.920;2022-12-10T11:19:21;4.30;79.30
29663;DHT22;16578;53.266;7.920;2022-12-10T11:21:47;4.30;79.30
29663;DHT22;16578;53.266;7.920;2022-12-10T11:24:17;4.30;79.30
29663;DHT22;16578;53.266;7.920;2022-12-10T11:40:13;4.40;78.80
29663;DHT22;16578;53.266;7.920;2022-12-10T11:43:05;4.40;79.00
29663;DHT22;16578;53.266;7.920;2022-12-10T11:46:01;4.40;78.80
29663;DHT22;16578;53.266;7.920;2022-12-10T11:51:40;4.50;78.80
29663;DHT22;16578;53.266;7.920;2022-12-10T11:57:23;4.60;78.80
29663;DHT22;16578;53.266;7.920;2022-12-10T12:00:22;4.60;78.80
29663;DHT22;16578;53.266;7.920;2022-12-10T12:03:37;4.60;78.80
29663;DHT22;16578;53.266;7.920;2022-12-10T12:09:06;4.60;78.80
29663;DHT22;16578;53.266;7.920;2022-12-10T12:11:51;4.60;78.70
29663;DHT22;16578;53.266;7.920;2022-12-10T12:14:24;4.60;78.80
29663;DHT22;16578;53.266;7.920;2022-12-10T12:16:59;4.70;78.90
29663;DHT22;16578;53.266;7.920;2022-12-10T12:19:34;4.70;78.90
29663;DHT22;16578;53.266;7.920;2022-12-10T12:22:11;4.70;78.90
29663;DHT22;16578;53.266;7.920;2022-12-10T12:24:40;4.80;78.80
29663;DHT22;16578;53.266;7.920;2022-12-10T12:35:49;4.90;78.20
29663;DHT22;16578;53.266;7.920;2022-12-10T12:41:45;4.90;78.00
29663;DHT22;16578;53.266;7.920;2022-12-10T12:44:24;4.90;78.10
29663;DHT22;16578;53.266;7.920;2022-12-10T12:46:55;4.90;78.20
29663;DHT22;16578;53.266;7.920;2022-12-10T12:49:36;4.90;78.30
29663;DHT22;16578;53.266;7.920;2022-12-10T12:52:43;4.90;78.10
29663;DHT22;16578;53.266;7.920;2022-12-10T12:55:17;4.90;77.90
29663;DHT22;16578;53.266;7.920;2022-12-10T12:58:01;4.90;78.00
29663;DHT22;16578;53.266;7.920;2022-12-10T13:00:30;4.90;77.90
29663;DHT22;16578;53.266;7.920;2022-12-10T13:03:36;4.90;77.70
29663;DHT22;16578;53.266;7.920;2022-12-10T13:06:15;5.00;77.60
29663;DHT22;16578;53.266;7.920;2022-12-10T13:08:46;5.00;77.80
29663;DHT22;16578;53.266;7.920;2022-12-10T13:21:57;4.90;77.30
29663;DHT22;16578;53.266;7.920;2022-12-10T13:34:44;4.80;77.20
29663;DHT22;16578;53.266;7.920;2022-12-10T13:37:17;4.80;77.60
29663;DHT22;16578;53.266;7.920;2022-12-10T13:39:52;4.80;77.40
29663;DHT22;16578;53.266;7.920;2022-12-10T13:42:26;4.80;77.50
29663;DHT22;16578;53.266;7.920;2022-12-10T13:48:29;4.90;77.50
29663;DHT22;16578;53.266;7.920;2022-12-10T13:50:48;4.80;77.40
29663;DHT22;16578;53.266;7.920;2022-12-10T13:53:19;4.80;77.40
29663;DHT22;16578;53.266;7.920;2022-12-10T13:56:00;4.80;77.30
29663;DHT22;16578;53.266;7.920;2022-12-10T14:06:54;4.80;77.20
29663;DHT22;16578;53.266;7.920;2022-12-10T14:11:57;4.80;77.30
29663;DHT22;16578;53.266;7.920;2022-12-10T14:14:34;4.80;77.20
29663;DHT22;16578;53.266;7.920;2022-12-10T14:17:05;4.80;77.80
29663;DHT22;16578;53.266;7.920;2022-12-10T14:19:33;4.80;77.30
29663;DHT22;16578;53.266;7.920;2022-12-10T14:22:03;4.80;77.30
29663;DHT22;16578;53.266;7.920;2022-12-10T14:24:38;4.70;77.10
29663;DHT22;16578;53.266;7.920;2022-12-10T14:27:16;4.80;77.40
29663;DHT22;16578;53.266;7.920;2022-12-10T14:29:50;4.80;77.20
29663;DHT22;16578;53.266;7.920;2022-12-10T14:32:19;4.80;77.20
29663;DHT22;16578;53.266;7.920;2022-12-10T14:34:54;4.80;77.20
29663;DHT22;16578;53.266;7.920;2022-12-10T14:37:28;4.80;77.10
29663;DHT22;16578;53.266;7.920;2022-12-10T14:39:54;4.80;77.10
29663;DHT22;16578;53.266;7.920;2022-12-10T14:42:20;4.80;77.00
29663;DHT22;16578;53.266;7.920;2022-12-10T14:44:51;4.80;77.00
29663;DHT22;16578;53.266;7.920;2022-12-10T14:47:20;4.80;77.00
29663;DHT22;16578;53.266;7.920;2022-12-10T14:49:52;4.80;77.00
29663;DHT22;16578;53.266;7.920;2022-12-10T14:52:23;4.80;77.10
29663;DHT22;16578;53.266;7.920;2022-12-10T14:54:50;4.90;77.10
29663;DHT22;16578;53.266;7.920;2022-12-10T14:57:27;4.80;77.10
29663;DHT22;16578;53.266;7.920;2022-12-10T15:00:04;4.90;77.10
29663;DHT22;16578;53.266;7.920;2022-12-10T15:02:37;4.90;77.00
29663;DHT22;16578;53.266;7.920;2022-12-10T15:05:26;4.90;77.10
29663;DHT22;16578;53.266;7.920;2022-12-10T15:08:02;4.90;77.10
29663;DHT22;16578;53.266;7.920;2022-12-10T15:10:35;4.90;76.90
29663;DHT22;16578;53.266;7.920;2022-12-10T15:13:02;4.90;76.90
29663;DHT22;16578;53.266;7.920;2022-12-10T15:15:34;4.90;76.90
29663;DHT22;16578;53.266;7.920;2022-12-10T15:20:36;4.80;76.80
29663;DHT22;16578;53.266;7.920;2022-12-10T15:28:28;4.80;76.80
29663;DHT22;16578;53.266;7.920;2022-12-10T15:31:19;4.80;76.80
29663;DHT22;16578;53.266;7.920;2022-12-10T15:33:52;4.80;76.70
29663;DHT22;16578;53.266;7.920;2022-12-10T15:36:36;4.80;76.80
29663;DHT22;16578;53.266;7.920;2022-12-10T15:39:29;4.80;76.60
29663;DHT22;16578;53.266;7.920;2022-12-10T15:41:58;4.70;76.60
29663;DHT22;16578;53.266;7.920;2022-12-10T15:44:36;4.70;76.80
29663;DHT22;16578;53.266;7.920;2022-12-10T15:47:21;4.70;76.90
29663;DHT22;16578;53.266;7.920;2022-12-10T15:49:53;4.80;77.00
29663;DHT22;16578;53.266;7.920;2022-12-10T15:52:23;4.80;77.00
29663;DHT22;16578;53.266;7.920;2022-12-10T15:54:51;4.80;77.00
29663;DHT22;16578;53.266;7.920;2022-12-10T15:57:24;4.80;77.10
29663;DHT22;16578;53.266;7.920;2022-12-10T15:59:52;4.80;78.00
29663;DHT22;16578;53.266;7.920;2022-12-10T16:02:37;4.80;77.00
29663;DHT22;16578;53.266;7.920;2022-12-10T16:05:15;4.80;76.90
29663;DHT22;16578;53.266;7.920;2022-12-10T16:07:41;4.80;76.80
29663;DHT22;16578;53.266;7.920;2022-12-10T16:10:09;4.80;76.80
29663;DHT22;16578;53.266;7.920;2022-12-10T16:12:36;4.80;76.90
29663;DHT22;16578;53.266;7.920;2022-12-10T16:15:04;4.80;77.00
29663;DHT22;16578;53.266;7.920;2022-12-10T16:17:30;4.90;77.00
29663;DHT22;16578;53.266;7.920;2022-12-10T16:20:18;4.90;77.00
29663;DHT22;16578;53.266;7.920;2022-12-10T16:22:45;4.90;76.90
29663;DHT22;16578;53.266;7.920;2022-12-10T16:25:11;4.90;76.90
29663;DHT22;16578;53.266;7.920;2022-12-10T16:27:37;4.90;76.80
29663;DHT22;16578;53.266;7.920;2022-12-10T16:30:18;4.90;76.80
29663;DHT22;16578;53.266;7.920;2022-12-10T16:32:45;4.90;76.70
29663;DHT22;16578;53.266;7.920;2022-12-10T16:35:11;4.80;76.80
29663;DHT22;16578;53.266;7.920;2022-12-10T16:37:42;4.80;76.80
29663;DHT22;16578;53.266;7.920;2022-12-10T16:40:09;4.90;76.90
29663;DHT22;16578;53.266;7.920;2022-12-10T16:42:35;4.90;76.90
29663;DHT22;16578;53.266;7.920;2022-12-10T16:45:00;4.80;76.90
29663;DHT22;16578;53.266;7.920;2022-12-10T16:47:26;4.90;76.90
29663;DHT22;16578;53.266;7.920;2022-12-10T16:49:51;4.80;76.80
29663;DHT22;16578;53.266;7.920;2022-12-10T16:52:17;4.90;76.90
29663;DHT22;16578;53.266;7.920;2022-12-10T16:54:43;4.90;76.90
29663;DHT22;16578;53.266;7.920;2022-12-10T16:57:11;4.90;76.90
29663;DHT22;16578;53.266;7.920;2022-12-10T16:59:37;4.90;76.90
29663;DHT22;16578;53.266;7.920;2022-12-10T17:02:16;4.90;77.00
29663;DHT22;16578;53.266;7.920;2022-12-10T17:04:44;4.80;76.80
29663;DHT22;16578;53.266;7.920;2022-12-10T17:07:10;4.80;76.80
29663;DHT22;16578;53.266;7.920;2022-12-10T17:09:36;4.80;76.80
29663;DHT22;16578;53.266;7.920;2022-12-10T17:12:02;4.80;76.80
29663;DHT22;16578;53.266;7.920;2022-12-10T17:14:32;4.90;76.90
29663;DHT22;16578;53.266;7.920;2022-12-10T17:16:59;4.80;77.00
29663;DHT22;16578;53.266;7.920;2022-12-10T17:19:33;4.80;77.00
29663;DHT22;16578;53.266;7.920;2022-12-10T17:21:59;4.90;76.80
29663;DHT22;16578;53.266;7.920;2022-12-10T17:24:25;4.80;76.70
29663;DHT22;16578;53.266;7.920;2022-12-10T17:26:52;4.80;76.80
29663;DHT22;16578;53.266;7.920;2022-12-10T17:29:32;4.80;76.80
29663;DHT22;16578;53.266;7.920;2022-12-10T17:31:59;4.80;76.80
29663;DHT22;16578;53.266;7.920;2022-12-10T17:34:24;4.80;76.80
29663;DHT22;16578;53.266;7.920;2022-12-10T17:36:51;4.80;76.70
29663;DHT22;16578;53.266;7.920;2022-12-10T17:39:18;4.80;76.70
29663;DHT22;16578;53.266;7.920;2022-12-10T17:41:44;4.80;76.80
29663;DHT22;16578;53.266;7.920;2022-12-10T17:44:10;4.70;76.90
29663;DHT22;16578;53.266;7.920;2022-12-10T17:46:36;4.80;76.90
29663;DHT22;16578;53.266;7.920;2022-12-10T17:49:02;4.80;76.90
29663;DHT22;16578;53.266;7.920;2022-12-10T17:51:31;4.80;76.90
29663;DHT22;16578;53.266;7.920;2022-12-10T17:53:58;4.80;76.90
29663;DHT22;16578;53.266;7.920;2022-12-10T17:56:26;4.80;76.90
29663;DHT22;16578;53.266;7.920;2022-12-10T17:58:54;4.80;76.80
29663;DHT22;16578;53.266;7.920;2022-12-10T18:01:19;4.80;76.80